Terminal Aerodrome Forecast
Issued by NWS Albuquerque, NM

Home | Current Version | Previous Version | Text Only | Print | Product List | Glossary On
Versions: 1 2 3 4 5 6 7 8 9 10 11 12 13 14 15 16 17 18
000
FTUS45 KABQ 310500 RRA
TAFABQ
TAF
KABQ 310543Z 3106/0106 07009KT P6SM VCSH FEW005 OVC020
      TEMPO 3108/3112 3SM -RASN BR OVC015
     FM311200 02005KT 5SM -RASN BR OVC015
     FM311800 20005KT P6SM VCSH OVC030
     FM312300 25006KT 5SM -RA BKN020 OVC050=

USA.gov is the U.S. government's official web portal to all federal, state and local government web resources and services.